sensor_id;sensor_type;location;lat;lon;timestamp;pressure;altitude;pressure_sealevel;temperature;humidity
22930;BME280;11630;42.660;23.292;2023-08-12T00:01:59;69604.45;;;18.72;98.92
22930;BME280;11630;42.660;23.292;2023-08-12T00:04:30;69593.52;;;18.57;99.71
22930;BME280;11630;42.660;23.292;2023-08-12T00:07:01;69589.67;;;18.56;99.84
22930;BME280;11630;42.660;23.292;2023-08-12T00:09:32;69594.35;;;18.54;100.00
22930;BME280;11630;42.660;23.292;2023-08-12T00:12:03;69589.15;;;18.53;99.81
22930;BME280;11630;42.660;23.292;2023-08-12T00:14:34;69588.56;;;18.60;99.89
22930;BME280;11630;42.660;23.292;2023-08-12T00:17:04;69579.80;;;18.53;100.00
22930;BME280;11630;42.660;23.292;2023-08-12T00:19:35;69591.85;;;18.61;100.00
22930;BME280;11630;42.660;23.292;2023-08-12T00:22:06;69594.33;;;18.62;99.50
22930;BME280;11630;42.660;23.292;2023-08-12T00:24:37;69594.06;;;18.58;99.47
22930;BME280;11630;42.660;23.292;2023-08-12T00:27:07;69579.25;;;18.50;99.76
22930;BME280;11630;42.660;23.292;2023-08-12T00:29:39;69572.38;;;18.50;99.87
22930;BME280;11630;42.660;23.292;2023-08-12T00:32:09;69594.09;;;18.53;99.47
22930;BME280;11630;42.660;23.292;2023-08-12T00:34:39;69590.22;;;18.54;99.32
22930;BME280;11630;42.660;23.292;2023-08-12T00:37:10;69578.70;;;18.52;99.60
22930;BME280;11630;42.660;23.292;2023-08-12T00:39:41;69593.78;;;18.59;99.02
22930;BME280;11630;42.660;23.292;2023-08-12T00:42:11;69584.20;;;18.52;99.49
22930;BME280;11630;42.660;23.292;2023-08-12T00:44:41;69577.34;;;18.49;99.38
22930;BME280;11630;42.660;23.292;2023-08-12T00:47:12;69586.94;;;18.54;99.01
22930;BME280;11630;42.660;23.292;2023-08-12T00:49:43;69577.63;;;18.46;99.36
22930;BME280;11630;42.660;23.292;2023-08-12T00:52:14;69572.44;;;18.37;99.92
22930;BME280;11630;42.660;23.292;2023-08-12T00:54:46;69570.21;;;18.43;100.00
22930;BME280;11630;42.660;23.292;2023-08-12T00:57:17;69598.83;;;18.41;100.00
22930;BME280;11630;42.660;23.292;2023-08-12T00:59:49;69577.39;;;18.37;100.00
22930;BME280;11630;42.660;23.292;2023-08-12T01:02:19;69570.52;;;18.37;100.00
22930;BME280;11630;42.660;23.292;2023-08-12T01:04:50;69564.48;;;18.31;100.00
22930;BME280;11630;42.660;23.292;2023-08-12T01:07:21;69567.23;;;18.31;100.00
22930;BME280;11630;42.660;23.292;2023-08-12T01:09:52;69557.63;;;18.29;100.00
22930;BME280;11630;42.660;23.292;2023-08-12T01:12:28;69562.00;;;18.33;100.00
22930;BME280;11630;42.660;23.292;2023-08-12T01:15:01;69565.84;;;18.34;100.00
22930;BME280;11630;42.660;23.292;2023-08-12T01:17:30;69550.24;;;18.21;99.85
22930;BME280;11630;42.660;23.292;2023-08-12T01:20:01;69551.88;;;18.22;99.79
22930;BME280;11630;42.660;23.292;2023-08-12T01:22:33;69561.21;;;18.26;100.00
22930;BME280;11630;42.660;23.292;2023-08-12T01:25:04;69552.99;;;18.21;99.58
22930;BME280;11630;42.660;23.292;2023-08-12T01:27:38;69556.78;;;18.34;99.11
22930;BME280;11630;42.660;23.292;2023-08-12T01:30:10;69555.98;;;18.30;98.48
22930;BME280;11630;42.660;23.292;2023-08-12T01:35:50;69570.59;;;18.22;98.50
22930;BME280;11630;42.660;23.292;2023-08-12T01:38:19;69540.64;;;18.11;98.51
22930;BME280;11630;42.660;23.292;2023-08-12T01:40:51;69525.27;;;18.07;98.90
22930;BME280;11630;42.660;23.292;2023-08-12T01:43:21;69533.52;;;18.07;98.03
22930;BME280;11630;42.660;23.292;2023-08-12T01:45:53;69531.06;;;18.03;97.73
22930;BME280;11630;42.660;23.292;2023-08-12T01:48:24;69541.72;;;18.14;96.72
22930;BME280;11630;42.660;23.292;2023-08-12T01:50:54;69529.95;;;18.05;97.12
22930;BME280;11630;42.660;23.292;2023-08-12T01:53:25;69532.42;;;18.06;96.81
22930;BME280;11630;42.660;23.292;2023-08-12T01:55:55;69535.72;;;18.04;96.67
22930;BME280;11630;42.660;23.292;2023-08-12T01:58:27;69524.20;;;18.01;96.54
22930;BME280;11630;42.660;23.292;2023-08-12T02:00:57;69526.94;;;18.03;96.85
22930;BME280;11630;42.660;23.292;2023-08-12T02:03:28;69521.45;;;18.01;96.51
22930;BME280;11630;42.660;23.292;2023-08-12T02:05:59;69532.69;;;18.05;96.97
22930;BME280;11630;42.660;23.292;2023-08-12T02:08:30;69527.53;;;17.94;97.00
22930;BME280;11630;42.660;23.292;2023-08-12T02:11:00;69535.72;;;18.04;96.13
22930;BME280;11630;42.660;23.292;2023-08-12T02:13:32;69522.84;;;17.98;95.60
22930;BME280;11630;42.660;23.292;2023-08-12T02:16:03;69512.69;;;17.93;95.94
22930;BME280;11630;42.660;23.292;2023-08-12T02:18:34;69519.58;;;17.90;96.21
22930;BME280;11630;42.660;23.292;2023-08-12T02:21:05;69510.50;;;17.91;96.05
22930;BME280;11630;42.660;23.292;2023-08-12T02:23:36;69508.88;;;17.87;96.44
22930;BME280;11630;42.660;23.292;2023-08-12T02:26:06;69500.09;;;17.84;97.08
22930;BME280;11630;42.660;23.292;2023-08-12T02:28:37;69505.86;;;17.83;97.01
22930;BME280;11630;42.660;23.292;2023-08-12T02:31:08;69505.03;;;17.81;96.83
22930;BME280;11630;42.660;23.292;2023-08-12T02:33:38;69508.88;;;17.82;97.44
22930;BME280;11630;42.660;23.292;2023-08-12T02:36:10;69506.44;;;17.76;96.91
22930;BME280;11630;42.660;23.292;2023-08-12T02:38:40;69506.98;;;17.79;97.06
22930;BME280;11630;42.660;23.292;2023-08-12T02:41:11;69499.02;;;17.78;96.48
22930;BME280;11630;42.660;23.292;2023-08-12T02:43:44;69511.91;;;17.83;95.73
22930;BME280;11630;42.660;23.292;2023-08-12T02:46:15;69506.13;;;17.82;95.43
22930;BME280;11630;42.660;23.292;2023-08-12T02:48:45;69498.98;;;17.83;95.45
22930;BME280;11630;42.660;23.292;2023-08-12T02:51:19;69513.27;;;17.86;94.89
22930;BME280;11630;42.660;23.292;2023-08-12T02:53:53;69504.78;;;17.77;94.16
22930;BME280;11630;42.660;23.292;2023-08-12T02:56:25;69509.72;;;17.81;94.60
22930;BME280;11630;42.660;23.292;2023-08-12T02:58:56;69501.48;;;17.79;94.32
22930;BME280;11630;42.660;23.292;2023-08-12T03:01:27;69513.55;;;17.85;94.15
22930;BME280;11630;42.660;23.292;2023-08-12T03:03:58;69517.92;;;17.89;93.47
22930;BME280;11630;42.660;23.292;2023-08-12T03:06:28;69502.29;;;17.81;93.28
22930;BME280;11630;42.660;23.292;2023-08-12T03:08:58;69508.33;;;17.84;93.34
22930;BME280;11630;42.660;23.292;2023-08-12T03:11:29;69499.02;;;17.78;93.18
22930;BME280;11630;42.660;23.292;2023-08-12T03:13:59;69515.45;;;17.88;93.26
22930;BME280;11630;42.660;23.292;2023-08-12T03:16:30;69536.81;;;18.05;92.83
22930;BME280;11630;42.660;23.292;2023-08-12T03:19:01;69515.16;;;17.94;93.46
22930;BME280;11630;42.660;23.292;2023-08-12T03:21:32;69556.53;;;18.28;92.86
22930;BME280;11630;42.660;23.292;2023-08-12T03:24:02;69529.95;;;18.05;93.85
22930;BME280;11630;42.660;23.292;2023-08-12T03:26:32;69540.08;;;18.13;94.48
22930;BME280;11630;42.660;23.292;2023-08-12T03:29:03;69553.80;;;18.25;92.59
22930;BME280;11630;42.660;23.292;2023-08-12T03:31:34;69569.69;;;18.37;91.98
22930;BME280;11630;42.660;23.292;2023-08-12T03:34:05;69590.59;;;18.39;93.00
22930;BME280;11630;42.660;23.292;2023-08-12T03:36:35;69543.93;;;18.14;92.85
22930;BME280;11630;42.660;23.292;2023-08-12T03:39:07;69517.63;;;17.97;93.33
22930;BME280;11630;42.660;23.292;2023-08-12T03:41:38;69519.07;;;17.80;94.92
22930;BME280;11630;42.660;23.292;2023-08-12T03:44:11;69505.62;;;17.74;95.04
22930;BME280;11630;42.660;23.292;2023-08-12T03:46:43;69468.89;;;17.53;95.93
22930;BME280;11630;42.660;23.292;2023-08-12T03:49:13;69468.66;;;17.44;96.72
22930;BME280;11630;42.660;23.292;2023-08-12T03:51:43;69462.09;;;17.43;97.25
22930;BME280;11630;42.660;23.292;2023-08-12T03:54:14;69480.48;;;17.41;97.21
22930;BME280;11630;42.660;23.292;2023-08-12T03:56:46;69479.63;;;17.49;98.24
22930;BME280;11630;42.660;23.292;2023-08-12T03:59:16;69465.63;;;17.50;99.62
22930;BME280;11630;42.660;23.292;2023-08-12T04:01:47;69489.20;;;17.62;100.00
22930;BME280;11630;42.660;23.292;2023-08-12T04:04:19;69512.42;;;17.89;99.87
22930;BME280;11630;42.660;23.292;2023-08-12T04:06:49;69515.99;;;17.91;99.59
22930;BME280;11630;42.660;23.292;2023-08-12T04:09:21;69531.88;;;18.05;97.89
22930;BME280;11630;42.660;23.292;2023-08-12T04:11:52;69540.64;;;18.13;97.62
22930;BME280;11630;42.660;23.292;2023-08-12T04:14:22;69564.23;;;18.30;96.89
22930;BME280;11630;42.660;23.292;2023-08-12T04:16:52;69551.88;;;18.20;99.18
22930;BME280;11630;42.660;23.292;2023-08-12T04:19:23;69565.58;;;18.35;99.82
22930;BME280;11630;42.660;23.292;2023-08-12T04:21:54;69582.86;;;18.42;97.68
22930;BME280;11630;42.660;23.292;2023-08-12T04:24:25;69592.17;;;18.53;97.29
22930;BME280;11630;42.660;23.292;2023-08-12T04:26:55;69606.14;;;18.66;97.01
22930;BME280;11630;42.660;23.292;2023-08-12T04:29:26;69626.71;;;18.76;96.43
22930;BME280;11630;42.660;23.292;2023-08-12T04:31:57;69634.09;;;18.89;96.08
22930;BME280;11630;42.660;23.292;2023-08-12T04:34:27;69600.34;;;18.70;97.78
22930;BME280;11630;42.660;23.292;2023-08-12T04:36:58;69562.02;;;18.30;98.67
22930;BME280;11630;42.660;23.292;2023-08-12T04:39:29;69560.10;;;18.30;96.00
22930;BME280;11630;42.660;23.292;2023-08-12T04:42:00;69588.09;;;18.43;93.01
22930;BME280;11630;42.660;23.292;2023-08-12T04:44:33;69582.05;;;18.40;91.23
22930;BME280;11630;42.660;23.292;2023-08-12T04:47:06;69603.38;;;18.69;90.75
22930;BME280;11630;42.660;23.292;2023-08-12T04:49:37;69617.88;;;18.86;89.90
22930;BME280;11630;42.660;23.292;2023-08-12T04:52:08;69653.24;;;19.14;88.60
22930;BME280;11630;42.660;23.292;2023-08-12T04:54:39;69670.50;;;19.31;86.99
22930;BME280;11630;42.660;23.292;2023-08-12T04:57:10;69655.42;;;19.19;86.22
22930;BME280;11630;42.660;23.292;2023-08-12T04:59:40;69621.17;;;18.86;85.89
22930;BME280;11630;42.660;23.292;2023-08-12T05:02:11;69599.56;;;18.60;87.48
22930;BME280;11630;42.660;23.292;2023-08-12T05:04:41;69588.88;;;18.50;87.71
22930;BME280;11630;42.660;23.292;2023-08-12T05:07:10;69566.95;;;18.35;88.51
22930;BME280;11630;42.660;23.292;2023-08-12T05:09:43;69599.31;;;18.54;87.88
22930;BME280;11630;42.660;23.292;2023-08-12T05:12:14;69589.72;;;18.49;88.54
22930;BME280;11630;42.660;23.292;2023-08-12T05:14:45;69603.08;;;18.72;87.93
22930;BME280;11630;42.660;23.292;2023-08-12T05:17:16;69633.83;;;18.85;87.73
22930;BME280;11630;42.660;23.292;2023-08-12T05:19:46;69657.88;;;19.22;86.91
22930;BME280;11630;42.660;23.292;2023-08-12T05:22:17;69631.05;;;18.93;86.82
22930;BME280;11630;42.660;23.292;2023-08-12T05:24:48;69623.91;;;18.89;88.29
22930;BME280;11630;42.660;23.292;2023-08-12T05:27:18;69632.67;;;18.97;88.03
22930;BME280;11630;42.660;23.292;2023-08-12T05:29:49;69654.38;;;19.10;87.59
22930;BME280;11630;42.660;23.292;2023-08-12T05:32:20;69619.00;;;18.79;88.93
22930;BME280;11630;42.660;23.292;2023-08-12T05:34:52;69655.41;;;19.21;88.53
22930;BME280;11630;42.660;23.292;2023-08-12T05:37:23;69696.86;;;19.47;87.54
22930;BME280;11630;42.660;23.292;2023-08-12T05:39:54;69697.10;;;19.54;85.68
22930;BME280;11630;42.660;23.292;2023-08-12T05:42:26;69712.22;;;19.59;85.54
22930;BME280;11630;42.660;23.292;2023-08-12T05:44:56;69688.59;;;19.50;85.82
22930;BME280;11630;42.660;23.292;2023-08-12T05:47:27;69705.09;;;19.55;85.84
22930;BME280;11630;42.660;23.292;2023-08-12T05:49:58;69763.45;;;20.16;84.12
22930;BME280;11630;42.660;23.292;2023-08-12T05:52:29;69801.03;;;20.49;82.20
22930;BME280;11630;42.660;23.292;2023-08-12T05:55:00;69746.78;;;19.90;81.79
22930;BME280;11630;42.660;23.292;2023-08-12T05:57:31;69726.73;;;19.76;83.67
22930;BME280;11630;42.660;23.292;2023-08-12T06:00:02;69748.97;;;19.97;82.87
22930;BME280;11630;42.660;23.292;2023-08-12T06:02:32;69765.41;;;20.14;81.68
22930;BME280;11630;42.660;23.292;2023-08-12T06:05:06;69763.48;;;20.11;81.52
22930;BME280;11630;42.660;23.292;2023-08-12T06:07:36;69783.22;;;20.32;81.12
22930;BME280;11630;42.660;23.292;2023-08-12T06:10:07;69772.48;;;20.28;81.16
22930;BME280;11630;42.660;23.292;2023-08-12T06:12:38;69818.34;;;20.61;79.78
22930;BME280;11630;42.660;23.292;2023-08-12T06:15:08;69844.19;;;20.82;78.71
22930;BME280;11630;42.660;23.292;2023-08-12T06:17:39;69793.72;;;20.29;79.28
22930;BME280;11630;42.660;23.292;2023-08-12T06:20:11;69779.66;;;20.27;79.91
22930;BME280;11630;42.660;23.292;2023-08-12T06:22:42;69767.62;;;20.11;80.34
22930;BME280;11630;42.660;23.292;2023-08-12T06:25:13;69775.54;;;20.25;79.66
22930;BME280;11630;42.660;23.292;2023-08-12T06:27:45;69854.92;;;20.83;78.45
22930;BME280;11630;42.660;23.292;2023-08-12T06:30:18;69857.33;;;20.96;78.67
22930;BME280;11630;42.660;23.292;2023-08-12T06:32:49;69938.39;;;21.64;76.35
22930;BME280;11630;42.660;23.292;2023-08-12T06:35:21;69908.41;;;21.38;75.48
22930;BME280;11630;42.660;23.292;2023-08-12T06:37:52;69900.97;;;21.35;74.73
22930;BME280;11630;42.660;23.292;2023-08-12T06:40:23;69929.02;;;21.58;75.31
22930;BME280;11630;42.660;23.292;2023-08-12T06:42:54;69970.22;;;21.95;73.94
22930;BME280;11630;42.660;23.292;2023-08-12T06:45:24;69971.63;;;21.92;74.17
22930;BME280;11630;42.660;23.292;2023-08-12T06:47:56;69970.78;;;21.93;73.51
22930;BME280;11630;42.660;23.292;2023-08-12T06:50:27;69949.73;;;21.63;73.01
22930;BME280;11630;42.660;23.292;2023-08-12T06:52:58;69942.53;;;21.64;73.09
22930;BME280;11630;42.660;23.292;2023-08-12T06:55:28;70008.73;;;22.22;72.64
22930;BME280;11630;42.660;23.292;2023-08-12T06:58:00;70034.79;;;22.54;70.01
22930;BME280;11630;42.660;23.292;2023-08-12T07:00:31;70037.58;;;22.52;68.74
22930;BME280;11630;42.660;23.292;2023-08-12T07:03:02;69991.39;;;22.10;68.77
22930;BME280;11630;42.660;23.292;2023-08-12T07:05:36;70033.71;;;22.51;70.73
22930;BME280;11630;42.660;23.292;2023-08-12T07:08:07;70069.77;;;22.77;70.40
22930;BME280;11630;42.660;23.292;2023-08-12T07:10:41;70077.95;;;22.90;68.99
22930;BME280;11630;42.660;23.292;2023-08-12T07:13:11;70082.00;;;23.02;67.89
22930;BME280;11630;42.660;23.292;2023-08-12T07:15:41;70119.92;;;23.10;66.50
22930;BME280;11630;42.660;23.292;2023-08-12T07:18:11;70112.17;;;23.08;65.66
22930;BME280;11630;42.660;23.292;2023-08-12T07:20:43;70074.28;;;22.98;64.64
22930;BME280;11630;42.660;23.292;2023-08-12T07:23:18;70056.97;;;22.52;64.47
22930;BME280;11630;42.660;23.292;2023-08-12T07:25:52;70128.08;;;23.27;65.49
22930;BME280;11630;42.660;23.292;2023-08-12T07:28:23;70128.08;;;23.27;65.49
22930;BME280;11630;42.660;23.292;2023-08-12T07:30:53;70154.25;;;23.47;64.45
22930;BME280;11630;42.660;23.292;2023-08-12T07:33:22;70204.11;;;23.86;63.69
22930;BME280;11630;42.660;23.292;2023-08-12T07:35:53;70227.22;;;24.09;63.06
22930;BME280;11630;42.660;23.292;2023-08-12T07:38:24;70215.73;;;24.18;62.33
22930;BME280;11630;42.660;23.292;2023-08-12T07:40:54;70265.92;;;24.56;60.51
22930;BME280;11630;42.660;23.292;2023-08-12T07:43:25;70214.47;;;24.05;61.58
22930;BME280;11630;42.660;23.292;2023-08-12T07:45:56;70182.78;;;23.83;61.95
22930;BME280;11630;42.660;23.292;2023-08-12T07:48:27;70181.20;;;23.74;62.35
22930;BME280;11630;42.660;23.292;2023-08-12T07:50:59;70191.45;;;23.77;62.56
22930;BME280;11630;42.660;23.292;2023-08-12T07:53:30;70281.39;;;24.65;60.39
22930;BME280;11630;42.660;23.292;2023-08-12T07:56:01;70241.66;;;24.36;59.65
22930;BME280;11630;42.660;23.292;2023-08-12T07:58:31;70266.20;;;24.55;59.29
22930;BME280;11630;42.660;23.292;2023-08-12T08:01:02;70251.91;;;24.37;60.33
22930;BME280;11630;42.660;23.292;2023-08-12T08:03:33;70259.58;;;24.51;59.75
22930;BME280;11630;42.660;23.292;2023-08-12T08:06:03;70293.84;;;24.70;59.64
22930;BME280;11630;42.660;23.292;2023-08-12T08:08:34;70251.15;;;24.32;59.08
22930;BME280;11630;42.660;23.292;2023-08-12T08:11:05;70262.13;;;24.45;59.55
22930;BME280;11630;42.660;23.292;2023-08-12T08:13:37;70256.93;;;24.36;58.81
22930;BME280;11630;42.660;23.292;2023-08-12T08:16:07;70274.00;;;24.54;58.26
22930;BME280;11630;42.660;23.292;2023-08-12T08:18:38;70248.84;;;24.43;58.42
22930;BME280;11630;42.660;23.292;2023-08-12T08:21:09;70325.34;;;25.14;56.94
22930;BME280;11630;42.660;23.292;2023-08-12T08:23:41;70363.52;;;25.34;56.54
22930;BME280;11630;42.660;23.292;2023-08-12T08:26:13;70321.58;;;25.01;57.31
22930;BME280;11630;42.660;23.292;2023-08-12T08:28:43;70311.97;;;24.91;56.31
22930;BME280;11630;42.660;23.292;2023-08-12T08:31:14;70394.94;;;25.60;55.45
22930;BME280;11630;42.660;23.292;2023-08-12T08:33:45;70357.28;;;25.43;56.58
22930;BME280;11630;42.660;23.292;2023-08-12T08:36:16;70406.82;;;25.93;54.05
22930;BME280;11630;42.660;23.292;2023-08-12T08:38:47;70396.75;;;25.75;53.69
22930;BME280;11630;42.660;23.292;2023-08-12T08:41:18;70362.56;;;25.44;54.22
22930;BME280;11630;42.660;23.292;2023-08-12T08:43:48;70416.86;;;25.92;52.29
22930;BME280;11630;42.660;23.292;2023-08-12T08:46:20;70445.06;;;26.10;51.52
22930;BME280;11630;42.660;23.292;2023-08-12T08:48:52;70447.09;;;26.27;51.54
22930;BME280;11630;42.660;23.292;2023-08-12T08:51:22;70409.50;;;25.79;52.47
22930;BME280;11630;42.660;23.292;2023-08-12T08:53:54;70365.41;;;25.39;52.96
22930;BME280;11630;42.660;23.292;2023-08-12T08:56:26;70429.28;;;26.02;52.60
22930;BME280;11630;42.660;23.292;2023-08-12T08:58:58;70489.98;;;26.51;51.37
22930;BME280;11630;42.660;23.292;2023-08-12T09:01:28;70484.13;;;26.52;50.63
22930;BME280;11630;42.660;23.292;2023-08-12T09:04:00;70489.41;;;26.53;50.55
22930;BME280;11630;42.660;23.292;2023-08-12T09:06:31;70472.55;;;26.42;50.58
22930;BME280;11630;42.660;23.292;2023-08-12T09:09:02;70514.48;;;26.77;49.16
22930;BME280;11630;42.660;23.292;2023-08-12T09:11:33;70555.15;;;27.05;47.98
22930;BME280;11630;42.660;23.292;2023-08-12T09:14:05;70578.41;;;27.40;48.09
22930;BME280;11630;42.660;23.292;2023-08-12T09:16:36;70558.11;;;27.14;47.65
22930;BME280;11630;42.660;23.292;2023-08-12T09:19:07;70600.36;;;27.48;48.26
22930;BME280;11630;42.660;23.292;2023-08-12T09:21:37;70623.38;;;27.82;46.86
22930;BME280;11630;42.660;23.292;2023-08-12T09:24:09;70631.81;;;27.77;46.18
22930;BME280;11630;42.660;23.292;2023-08-12T09:26:41;70626.34;;;27.69;46.97
22930;BME280;11630;42.660;23.292;2023-08-12T09:29:11;70602.78;;;27.54;46.28
22930;BME280;11630;42.660;23.292;2023-08-12T09:31:44;70511.00;;;26.65;47.93
22930;BME280;11630;42.660;23.292;2023-08-12T09:34:15;70561.77;;;27.11;47.41
22930;BME280;11630;42.660;23.292;2023-08-12T09:36:47;70612.27;;;27.55;46.80
22930;BME280;11630;42.660;23.292;2023-08-12T09:39:19;70637.89;;;27.82;45.99
22930;BME280;11630;42.660;23.292;2023-08-12T09:41:53;70681.80;;;28.20;45.82
22930;BME280;11630;42.660;23.292;2023-08-12T09:44:24;70711.34;;;28.48;45.33
22930;BME280;11630;42.660;23.292;2023-08-12T09:46:58;70744.20;;;28.79;44.84
22930;BME280;11630;42.660;23.292;2023-08-12T09:49:33;70779.33;;;29.07;43.69
22930;BME280;11630;42.660;23.292;2023-08-12T09:52:09;70828.73;;;29.55;42.39
22930;BME280;11630;42.660;23.292;2023-08-12T09:54:43;70801.94;;;29.30;41.68
22930;BME280;11630;42.660;23.292;2023-08-12T09:57:15;70821.25;;;29.50;41.54
22930;BME280;11630;42.660;23.292;2023-08-12T09:59:46;70817.14;;;29.45;41.69
22930;BME280;11630;42.660;23.292;2023-08-12T10:02:18;70775.13;;;29.07;41.93
22930;BME280;11630;42.660;23.292;2023-08-12T10:04:50;70829.53;;;29.57;42.11
22930;BME280;11630;42.660;23.292;2023-08-12T10:07:22;70740.90;;;28.74;42.62
22930;BME280;11630;42.660;23.292;2023-08-12T10:09:53;70790.34;;;29.19;42.28
22930;BME280;11630;42.660;23.292;2023-08-12T10:12:23;70722.08;;;28.59;42.02
22930;BME280;11630;42.660;23.292;2023-08-12T10:14:54;70821.80;;;29.50;41.16
22930;BME280;11630;42.660;23.292;2023-08-12T10:17:26;70848.95;;;29.69;40.42
22930;BME280;11630;42.660;23.292;2023-08-12T10:19:58;70896.98;;;30.18;39.52
22930;BME280;11630;42.660;23.292;2023-08-12T10:22:30;70940.67;;;30.57;39.32
22930;BME280;11630;42.660;23.292;2023-08-12T10:25:02;70953.14;;;30.67;38.39
22930;BME280;11630;42.660;23.292;2023-08-12T10:27:33;70836.20;;;29.61;39.60
22930;BME280;11630;42.660;23.292;2023-08-12T10:30:06;70919.36;;;30.39;39.09
22930;BME280;11630;42.660;23.292;2023-08-12T10:32:37;70908.88;;;30.27;39.21
22930;BME280;11630;42.660;23.292;2023-08-12T10:35:08;70783.67;;;29.16;41.19
22930;BME280;11630;42.660;23.292;2023-08-12T10:37:38;70820.44;;;29.48;40.25
22930;BME280;11630;42.660;23.292;2023-08-12T10:40:21;70863.00;;;29.86;39.25
22930;BME280;11630;42.660;23.292;2023-08-12T10:42:52;70913.86;;;30.32;38.33
22930;BME280;11630;42.660;23.292;2023-08-12T10:45:24;70904.47;;;30.23;38.03
22930;BME280;11630;42.660;23.292;2023-08-12T10:50:31;70811.89;;;29.39;39.03
22930;BME280;11630;42.660;23.292;2023-08-12T10:55:56;70916.89;;;30.36;38.37
22930;BME280;11630;42.660;23.292;2023-08-12T10:58:46;70996.59;;;31.05;37.10
22930;BME280;11630;42.660;23.292;2023-08-12T11:01:18;71077.64;;;31.79;35.68
22930;BME280;11630;42.660;23.292;2023-08-12T11:03:49;71015.37;;;31.24;35.90
22930;BME280;11630;42.660;23.292;2023-08-12T11:06:22;71033.32;;;31.41;35.52
22930;BME280;11630;42.660;23.292;2023-08-12T11:08:55;71027.27;;;31.33;35.21
22930;BME280;11630;42.660;23.292;2023-08-12T11:11:24;71021.48;;;31.27;36.23
22930;BME280;11630;42.660;23.292;2023-08-12T11:13:56;71017.06;;;31.23;36.00
22930;BME280;11630;42.660;23.292;2023-08-12T11:16:36;71083.44;;;31.85;34.72
22930;BME280;11630;42.660;23.292;2023-08-12T11:19:07;71142.59;;;32.43;34.39
22930;BME280;11630;42.660;23.292;2023-08-12T11:21:38;71017.83;;;31.27;35.79
22930;BME280;11630;42.660;23.292;2023-08-12T11:24:09;71052.45;;;31.57;35.27
22930;BME280;11630;42.660;23.292;2023-08-12T11:26:41;71017.02;;;31.25;34.95
22930;BME280;11630;42.660;23.292;2023-08-12T11:29:12;71022.55;;;31.30;34.90
22930;BME280;11630;42.660;23.292;2023-08-12T11:31:43;71087.31;;;31.89;33.93
22930;BME280;11630;42.660;23.292;2023-08-12T11:34:15;71128.29;;;32.25;33.16
22930;BME280;11630;42.660;23.292;2023-08-12T11:36:45;71090.08;;;31.91;33.62
22930;BME280;11630;42.660;23.292;2023-08-12T11:39:16;70909.98;;;30.28;34.18
22930;BME280;11630;42.660;23.292;2023-08-12T11:41:48;70860.22;;;29.83;34.86
22930;BME280;11630;42.660;23.292;2023-08-12T11:44:23;70988.84;;;30.98;32.97
22930;BME280;11630;42.660;23.292;2023-08-12T11:46:51;70985.78;;;30.96;32.66
22930;BME280;11630;42.660;23.292;2023-08-12T11:49:22;71117.78;;;32.16;30.90
22930;BME280;11630;42.660;23.292;2023-08-12T11:51:53;71113.66;;;32.11;30.73
22930;BME280;11630;42.660;23.292;2023-08-12T11:54:25;71190.63;;;32.80;30.33
22930;BME280;11630;42.660;23.292;2023-08-12T11:56:57;71206.13;;;32.94;29.78
22930;BME280;11630;42.660;23.292;2023-08-12T11:59:30;71144.43;;;32.35;31.26
22930;BME280;11630;42.660;23.292;2023-08-12T12:02:03;71204.67;;;32.96;31.54
22930;BME280;11630;42.660;23.292;2023-08-12T12:04:32;71206.38;;;32.95;30.86
22930;BME280;11630;42.660;23.292;2023-08-12T12:07:03;71156.22;;;32.52;31.13
22930;BME280;11630;42.660;23.292;2023-08-12T12:09:34;71069.05;;;31.72;31.35
22930;BME280;11630;42.660;23.292;2023-08-12T12:12:05;71187.00;;;32.78;30.20
22930;BME280;11630;42.660;23.292;2023-08-12T12:14:37;71182.83;;;32.76;30.08
22930;BME280;11630;42.660;23.292;2023-08-12T12:17:10;71121.41;;;32.18;30.50
22930;BME280;11630;42.660;23.292;2023-08-12T12:19:41;70932.09;;;30.50;32.28
22930;BME280;11630;42.660;23.292;2023-08-12T12:22:12;70990.22;;;31.00;32.16
22930;BME280;11630;42.660;23.292;2023-08-12T12:24:47;70967.52;;;30.80;32.70
22930;BME280;11630;42.660;23.292;2023-08-12T12:27:19;71012.61;;;31.22;31.81
22930;BME280;11630;42.660;23.292;2023-08-12T12:29:50;70953.14;;;30.67;33.18
22930;BME280;11630;42.660;23.292;2023-08-12T12:32:21;70810.13;;;29.45;35.12
22930;BME280;11630;42.660;23.292;2023-08-12T12:34:50;70746.55;;;28.90;36.17
22930;BME280;11630;42.660;23.292;2023-08-12T12:37:20;70818.83;;;29.44;35.69
22930;BME280;11630;42.660;23.292;2023-08-12T12:39:52;70881.55;;;30.01;35.46
22930;BME280;11630;42.660;23.292;2023-08-12T12:42:24;70725.40;;;28.62;36.93
22930;BME280;11630;42.660;23.292;2023-08-12T12:44:57;70774.02;;;29.06;36.09
22930;BME280;11630;42.660;23.292;2023-08-12T12:47:28;70738.61;;;28.79;36.57
22930;BME280;11630;42.660;23.292;2023-08-12T12:49:59;70713.53;;;28.50;37.11
22930;BME280;11630;42.660;23.292;2023-08-12T12:52:31;70736.77;;;28.69;37.60
22930;BME280;11630;42.660;23.292;2023-08-12T12:55:02;70638.45;;;27.83;37.90
22930;BME280;11630;42.660;23.292;2023-08-12T12:57:34;70645.04;;;27.91;37.89
22930;BME280;11630;42.660;23.292;2023-08-12T13:00:06;70644.52;;;27.88;38.59
22930;BME280;11630;42.660;23.292;2023-08-12T13:02:35;70674.00;;;28.18;38.42
22930;BME280;11630;42.660;23.292;2023-08-12T13:05:07;70853.30;;;29.78;36.48
22930;BME280;11630;42.660;23.292;2023-08-12T13:07:40;70977.72;;;30.90;34.68
22930;BME280;11630;42.660;23.292;2023-08-12T13:10:11;71074.63;;;31.75;33.61
22930;BME280;11630;42.660;23.292;2023-08-12T13:12:41;71111.14;;;32.10;33.21
22930;BME280;11630;42.660;23.292;2023-08-12T13:15:12;71077.34;;;31.80;33.91
22930;BME280;11630;42.660;23.292;2023-08-12T13:17:43;71176.48;;;32.69;31.96
22930;BME280;11630;42.660;23.292;2023-08-12T13:20:15;71176.48;;;32.69;32.16